sensor_id;sensor_type;location;lat;lon;timestamp;P1;durP1;ratioP1;P2;durP2;ratioP2
53072;SDS011;38955;48.916;2.336;2023-04-24T00:00:59;6.43;;;1.90;;
53072;SDS011;38955;48.916;2.336;2023-04-24T00:03:02;4.13;;;1.60;;
53072;SDS011;38955;48.916;2.336;2023-04-24T00:05:04;7.30;;;1.70;;
53072;SDS011;38955;48.916;2.336;2023-04-24T00:07:08;6.30;;;1.75;;
53072;SDS011;38955;48.916;2.336;2023-04-24T00:09:10;5.55;;;1.80;;
53072;SDS011;38955;48.916;2.336;2023-04-24T00:11:12;4.50;;;1.70;;
53072;SDS011;38955;48.916;2.336;2023-04-24T00:13:14;5.30;;;1.70;;
53072;SDS011;38955;48.916;2.336;2023-04-24T00:15:17;4.57;;;1.60;;
53072;SDS011;38955;48.916;2.336;2023-04-24T00:17:19;3.20;;;1.65;;
53072;SDS011;38955;48.916;2.336;2023-04-24T00:19:22;7.70;;;2.42;;
53072;SDS011;38955;48.916;2.336;2023-04-24T00:21:24;6.40;;;2.03;;
53072;SDS011;38955;48.916;2.336;2023-04-24T00:23:30;5.63;;;2.10;;
53072;SDS011;38955;48.916;2.336;2023-04-24T00:25:32;12.27;;;2.45;;
53072;SDS011;38955;48.916;2.336;2023-04-24T00:27:34;7.38;;;1.92;;
53072;SDS011;38955;48.916;2.336;2023-04-24T00:29:38;7.85;;;2.75;;
53072;SDS011;38955;48.916;2.336;2023-04-24T00:31:40;8.43;;;1.85;;
53072;SDS011;38955;48.916;2.336;2023-04-24T00:33:43;11.25;;;2.47;;
53072;SDS011;38955;48.916;2.336;2023-04-24T00:35:47;7.67;;;2.00;;
53072;SDS011;38955;48.916;2.336;2023-04-24T00:37:49;7.97;;;2.25;;
53072;SDS011;38955;48.916;2.336;2023-04-24T00:39:53;5.50;;;2.13;;
53072;SDS011;38955;48.916;2.336;2023-04-24T00:41:55;6.00;;;2.17;;
53072;SDS011;38955;48.916;2.336;2023-04-24T00:44:01;7.25;;;2.60;;
53072;SDS011;38955;48.916;2.336;2023-04-24T00:46:03;9.63;;;2.50;;
53072;SDS011;38955;48.916;2.336;2023-04-24T00:48:05;9.05;;;2.40;;
53072;SDS011;38955;48.916;2.336;2023-04-24T00:50:08;5.57;;;1.95;;
53072;SDS011;38955;48.916;2.336;2023-04-24T00:52:13;9.95;;;2.63;;
53072;SDS011;38955;48.916;2.336;2023-04-24T00:54:19;7.55;;;2.15;;
53072;SDS011;38955;48.916;2.336;2023-04-24T00:56:22;8.63;;;2.42;;
53072;SDS011;38955;48.916;2.336;2023-04-24T00:58:27;5.85;;;1.90;;
53072;SDS011;38955;48.916;2.336;2023-04-24T01:00:30;6.25;;;2.10;;
53072;SDS011;38955;48.916;2.336;2023-04-24T01:02:32;9.70;;;2.53;;
53072;SDS011;38955;48.916;2.336;2023-04-24T01:04:36;8.77;;;2.30;;
53072;SDS011;38955;48.916;2.336;2023-04-24T01:06:39;8.27;;;2.33;;
53072;SDS011;38955;48.916;2.336;2023-04-24T01:08:41;7.20;;;2.25;;
53072;SDS011;38955;48.916;2.336;2023-04-24T01:10:44;8.45;;;2.70;;
53072;SDS011;38955;48.916;2.336;2023-04-24T01:12:49;7.45;;;2.53;;
53072;SDS011;38955;48.916;2.336;2023-04-24T01:14:53;9.65;;;2.42;;
53072;SDS011;38955;48.916;2.336;2023-04-24T01:16:56;9.48;;;2.42;;
53072;SDS011;38955;48.916;2.336;2023-04-24T01:18:58;8.85;;;2.45;;
53072;SDS011;38955;48.916;2.336;2023-04-24T01:21:02;9.98;;;2.50;;
53072;SDS011;38955;48.916;2.336;2023-04-24T01:23:07;10.88;;;2.08;;
53072;SDS011;38955;48.916;2.336;2023-04-24T01:25:09;8.48;;;2.17;;
53072;SDS011;38955;48.916;2.336;2023-04-24T01:27:11;14.48;;;2.60;;
53072;SDS011;38955;48.916;2.336;2023-04-24T01:29:13;10.32;;;2.58;;
53072;SDS011;38955;48.916;2.336;2023-04-24T01:31:15;7.60;;;2.15;;
53072;SDS011;38955;48.916;2.336;2023-04-24T01:33:18;7.75;;;2.00;;
53072;SDS011;38955;48.916;2.336;2023-04-24T01:35:22;10.52;;;2.70;;
53072;SDS011;38955;48.916;2.336;2023-04-24T01:37:24;8.95;;;2.70;;
53072;SDS011;38955;48.916;2.336;2023-04-24T01:39:29;14.52;;;2.95;;
53072;SDS011;38955;48.916;2.336;2023-04-24T01:41:31;7.35;;;2.33;;
53072;SDS011;38955;48.916;2.336;2023-04-24T01:43:34;10.07;;;2.75;;
53072;SDS011;38955;48.916;2.336;2023-04-24T01:45:36;9.45;;;2.67;;
53072;SDS011;38955;48.916;2.336;2023-04-24T01:47:38;10.45;;;2.70;;
53072;SDS011;38955;48.916;2.336;2023-04-24T01:49:40;10.07;;;2.80;;
53072;SDS011;38955;48.916;2.336;2023-04-24T01:51:43;10.20;;;2.65;;
53072;SDS011;38955;48.916;2.336;2023-04-24T01:53:45;11.80;;;3.28;;
53072;SDS011;38955;48.916;2.336;2023-04-24T01:55:49;10.10;;;2.38;;
53072;SDS011;38955;48.916;2.336;2023-04-24T01:57:52;11.85;;;2.97;;
53072;SDS011;38955;48.916;2.336;2023-04-24T01:59:55;6.50;;;1.98;;
53072;SDS011;38955;48.916;2.336;2023-04-24T02:01:58;8.57;;;2.35;;
53072;SDS011;38955;48.916;2.336;2023-04-24T02:04:00;9.43;;;2.20;;
53072;SDS011;38955;48.916;2.336;2023-04-24T02:06:02;9.63;;;2.85;;
53072;SDS011;38955;48.916;2.336;2023-04-24T02:08:05;11.75;;;2.33;;
53072;SDS011;38955;48.916;2.336;2023-04-24T02:10:07;14.20;;;3.17;;
53072;SDS011;38955;48.916;2.336;2023-04-24T02:12:11;12.00;;;3.03;;
53072;SDS011;38955;48.916;2.336;2023-04-24T02:14:14;10.80;;;2.55;;
53072;SDS011;38955;48.916;2.336;2023-04-24T02:16:17;13.73;;;2.85;;
53072;SDS011;38955;48.916;2.336;2023-04-24T02:18:19;10.15;;;2.80;;
53072;SDS011;38955;48.916;2.336;2023-04-24T02:20:21;12.88;;;2.75;;
53072;SDS011;38955;48.916;2.336;2023-04-24T02:22:24;9.70;;;2.47;;
53072;SDS011;38955;48.916;2.336;2023-04-24T02:24:28;9.63;;;2.30;;
53072;SDS011;38955;48.916;2.336;2023-04-24T02:26:30;9.80;;;2.63;;
53072;SDS011;38955;48.916;2.336;2023-04-24T02:28:34;9.93;;;2.50;;
53072;SDS011;38955;48.916;2.336;2023-04-24T02:30:36;4.97;;;2.35;;
53072;SDS011;38955;48.916;2.336;2023-04-24T02:32:38;10.20;;;2.88;;
53072;SDS011;38955;48.916;2.336;2023-04-24T02:34:41;9.30;;;2.47;;
53072;SDS011;38955;48.916;2.336;2023-04-24T02:36:43;12.90;;;2.70;;
53072;SDS011;38955;48.916;2.336;2023-04-24T02:38:45;10.13;;;2.20;;
53072;SDS011;38955;48.916;2.336;2023-04-24T02:40:47;11.80;;;2.60;;
53072;SDS011;38955;48.916;2.336;2023-04-24T02:42:49;7.03;;;2.17;;
53072;SDS011;38955;48.916;2.336;2023-04-24T02:44:52;6.18;;;2.10;;
53072;SDS011;38955;48.916;2.336;2023-04-24T02:46:54;12.23;;;2.55;;
53072;SDS011;38955;48.916;2.336;2023-04-24T02:48:57;8.27;;;2.30;;
53072;SDS011;38955;48.916;2.336;2023-04-24T02:50:59;10.23;;;2.83;;
53072;SDS011;38955;48.916;2.336;2023-04-24T02:53:01;8.82;;;2.53;;
53072;SDS011;38955;48.916;2.336;2023-04-24T02:55:04;8.63;;;2.25;;
53072;SDS011;38955;48.916;2.336;2023-04-24T02:57:06;9.30;;;2.55;;
53072;SDS011;38955;48.916;2.336;2023-04-24T02:59:08;8.35;;;2.22;;
53072;SDS011;38955;48.916;2.336;2023-04-24T03:01:13;14.13;;;2.75;;
53072;SDS011;38955;48.916;2.336;2023-04-24T03:03:15;11.73;;;2.70;;
53072;SDS011;38955;48.916;2.336;2023-04-24T03:05:17;9.85;;;2.63;;
53072;SDS011;38955;48.916;2.336;2023-04-24T03:07:19;8.45;;;2.13;;
53072;SDS011;38955;48.916;2.336;2023-04-24T03:09:22;10.27;;;2.55;;
53072;SDS011;38955;48.916;2.336;2023-04-24T03:11:25;7.97;;;2.60;;
53072;SDS011;38955;48.916;2.336;2023-04-24T03:13:27;10.02;;;2.55;;
53072;SDS011;38955;48.916;2.336;2023-04-24T03:15:29;8.40;;;2.17;;
53072;SDS011;38955;48.916;2.336;2023-04-24T03:17:32;12.13;;;2.65;;
53072;SDS011;38955;48.916;2.336;2023-04-24T03:19:34;7.05;;;2.50;;
53072;SDS011;38955;48.916;2.336;2023-04-24T03:21:36;11.82;;;2.67;;
53072;SDS011;38955;48.916;2.336;2023-04-24T03:25:43;9.13;;;2.30;;
53072;SDS011;38955;48.916;2.336;2023-04-24T03:27:48;7.82;;;2.40;;
53072;SDS011;38955;48.916;2.336;2023-04-24T03:29:50;8.90;;;2.50;;
53072;SDS011;38955;48.916;2.336;2023-04-24T03:31:57;10.23;;;2.28;;
53072;SDS011;38955;48.916;2.336;2023-04-24T03:34:00;8.98;;;2.72;;
53072;SDS011;38955;48.916;2.336;2023-04-24T03:36:03;7.57;;;2.10;;
53072;SDS011;38955;48.916;2.336;2023-04-24T03:38:06;10.65;;;2.70;;
53072;SDS011;38955;48.916;2.336;2023-04-24T03:40:08;12.63;;;2.03;;
53072;SDS011;38955;48.916;2.336;2023-04-24T03:42:11;7.97;;;2.42;;
53072;SDS011;38955;48.916;2.336;2023-04-24T03:44:13;11.73;;;2.60;;
53072;SDS011;38955;48.916;2.336;2023-04-24T03:46:15;8.52;;;2.70;;
53072;SDS011;38955;48.916;2.336;2023-04-24T03:48:17;9.45;;;2.75;;
53072;SDS011;38955;48.916;2.336;2023-04-24T03:50:20;13.45;;;2.55;;
53072;SDS011;38955;48.916;2.336;2023-04-24T03:52:23;10.25;;;2.20;;
53072;SDS011;38955;48.916;2.336;2023-04-24T03:54:26;12.93;;;2.55;;
53072;SDS011;38955;48.916;2.336;2023-04-24T03:56:28;9.10;;;2.60;;
53072;SDS011;38955;48.916;2.336;2023-04-24T03:58:31;7.80;;;2.20;;
53072;SDS011;38955;48.916;2.336;2023-04-24T04:00:33;8.50;;;2.38;;
53072;SDS011;38955;48.916;2.336;2023-04-24T04:02:35;8.23;;;2.78;;
53072;SDS011;38955;48.916;2.336;2023-04-24T04:04:38;8.52;;;2.65;;
53072;SDS011;38955;48.916;2.336;2023-04-24T04:06:41;10.57;;;2.72;;
53072;SDS011;38955;48.916;2.336;2023-04-24T04:08:45;7.53;;;2.25;;
53072;SDS011;38955;48.916;2.336;2023-04-24T04:10:50;10.07;;;3.03;;
53072;SDS011;38955;48.916;2.336;2023-04-24T04:12:52;12.27;;;2.88;;
53072;SDS011;38955;48.916;2.336;2023-04-24T04:14:54;8.30;;;2.45;;
53072;SDS011;38955;48.916;2.336;2023-04-24T04:16:57;7.97;;;2.45;;
53072;SDS011;38955;48.916;2.336;2023-04-24T04:18:59;6.78;;;2.67;;
53072;SDS011;38955;48.916;2.336;2023-04-24T04:21:02;8.13;;;2.30;;
53072;SDS011;38955;48.916;2.336;2023-04-24T04:23:05;9.40;;;2.90;;
53072;SDS011;38955;48.916;2.336;2023-04-24T04:25:07;12.48;;;2.70;;
53072;SDS011;38955;48.916;2.336;2023-04-24T04:27:10;11.07;;;2.63;;
53072;SDS011;38955;48.916;2.336;2023-04-24T04:29:12;11.90;;;3.28;;
53072;SDS011;38955;48.916;2.336;2023-04-24T04:31:16;8.73;;;2.38;;
53072;SDS011;38955;48.916;2.336;2023-04-24T04:33:18;12.73;;;2.83;;
53072;SDS011;38955;48.916;2.336;2023-04-24T04:35:20;6.38;;;2.00;;
53072;SDS011;38955;48.916;2.336;2023-04-24T04:37:23;9.73;;;2.42;;
53072;SDS011;38955;48.916;2.336;2023-04-24T04:39:30;6.28;;;2.42;;
53072;SDS011;38955;48.916;2.336;2023-04-24T04:41:32;10.90;;;2.80;;
53072;SDS011;38955;48.916;2.336;2023-04-24T04:43:36;11.10;;;2.87;;
53072;SDS011;38955;48.916;2.336;2023-04-24T04:45:40;10.68;;;2.50;;
53072;SDS011;38955;48.916;2.336;2023-04-24T04:47:44;9.07;;;3.10;;
53072;SDS011;38955;48.916;2.336;2023-04-24T04:49:47;11.82;;;2.72;;
53072;SDS011;38955;48.916;2.336;2023-04-24T04:51:49;8.30;;;2.40;;
53072;SDS011;38955;48.916;2.336;2023-04-24T04:53:52;9.77;;;3.08;;
53072;SDS011;38955;48.916;2.336;2023-04-24T04:55:55;8.20;;;3.28;;
53072;SDS011;38955;48.916;2.336;2023-04-24T04:57:58;11.83;;;3.37;;
53072;SDS011;38955;48.916;2.336;2023-04-24T05:00:01;10.05;;;3.05;;
53072;SDS011;38955;48.916;2.336;2023-04-24T05:02:05;6.55;;;2.58;;
53072;SDS011;38955;48.916;2.336;2023-04-24T05:04:08;7.57;;;2.88;;
53072;SDS011;38955;48.916;2.336;2023-04-24T05:06:10;16.00;;;3.35;;
53072;SDS011;38955;48.916;2.336;2023-04-24T05:08:12;7.43;;;2.63;;
53072;SDS011;38955;48.916;2.336;2023-04-24T05:10:28;9.77;;;3.50;;
53072;SDS011;38955;48.916;2.336;2023-04-24T05:12:33;8.85;;;3.30;;
53072;SDS011;38955;48.916;2.336;2023-04-24T05:14:35;10.05;;;3.10;;
53072;SDS011;38955;48.916;2.336;2023-04-24T05:16:37;13.35;;;3.05;;
53072;SDS011;38955;48.916;2.336;2023-04-24T05:18:39;11.43;;;2.95;;
53072;SDS011;38955;48.916;2.336;2023-04-24T05:20:42;11.90;;;3.03;;
53072;SDS011;38955;48.916;2.336;2023-04-24T05:22:45;10.32;;;3.22;;
53072;SDS011;38955;48.916;2.336;2023-04-24T05:24:47;7.30;;;2.78;;
53072;SDS011;38955;48.916;2.336;2023-04-24T05:26:49;7.28;;;2.92;;
53072;SDS011;38955;48.916;2.336;2023-04-24T05:28:53;9.68;;;2.78;;
53072;SDS011;38955;48.916;2.336;2023-04-24T05:30:55;9.48;;;3.33;;
53072;SDS011;38955;48.916;2.336;2023-04-24T05:32:57;6.68;;;3.50;;
53072;SDS011;38955;48.916;2.336;2023-04-24T05:35:02;13.27;;;3.83;;
53072;SDS011;38955;48.916;2.336;2023-04-24T05:37:05;8.93;;;3.15;;
53072;SDS011;38955;48.916;2.336;2023-04-24T05:41:12;9.13;;;3.00;;
53072;SDS011;38955;48.916;2.336;2023-04-24T05:43:14;11.63;;;3.67;;
53072;SDS011;38955;48.916;2.336;2023-04-24T05:45:18;9.30;;;3.10;;
53072;SDS011;38955;48.916;2.336;2023-04-24T05:47:20;9.05;;;3.90;;
53072;SDS011;38955;48.916;2.336;2023-04-24T05:49:23;6.32;;;2.88;;
53072;SDS011;38955;48.916;2.336;2023-04-24T05:51:25;12.02;;;4.00;;
53072;SDS011;38955;48.916;2.336;2023-04-24T05:53:27;13.73;;;4.28;;
53072;SDS011;38955;48.916;2.336;2023-04-24T05:55:30;12.02;;;3.72;;
53072;SDS011;38955;48.916;2.336;2023-04-24T05:57:33;10.60;;;3.63;;
53072;SDS011;38955;48.916;2.336;2023-04-24T05:59:36;10.25;;;3.90;;
53072;SDS011;38955;48.916;2.336;2023-04-24T06:01:41;17.00;;;4.68;;
53072;SDS011;38955;48.916;2.336;2023-04-24T06:03:45;10.43;;;3.95;;
53072;SDS011;38955;48.916;2.336;2023-04-24T06:05:49;13.40;;;4.43;;
53072;SDS011;38955;48.916;2.336;2023-04-24T06:07:51;13.40;;;4.32;;
53072;SDS011;38955;48.916;2.336;2023-04-24T06:09:53;16.10;;;4.35;;
53072;SDS011;38955;48.916;2.336;2023-04-24T06:11:56;13.55;;;4.22;;
53072;SDS011;38955;48.916;2.336;2023-04-24T06:13:59;13.20;;;3.83;;
53072;SDS011;38955;48.916;2.336;2023-04-24T06:16:01;10.35;;;3.97;;
53072;SDS011;38955;48.916;2.336;2023-04-24T06:18:05;7.40;;;3.47;;
53072;SDS011;38955;48.916;2.336;2023-04-24T06:20:08;12.70;;;4.80;;
53072;SDS011;38955;48.916;2.336;2023-04-24T06:22:12;12.18;;;3.83;;
53072;SDS011;38955;48.916;2.336;2023-04-24T06:24:14;15.43;;;3.92;;
53072;SDS011;38955;48.916;2.336;2023-04-24T06:26:17;17.35;;;4.13;;
53072;SDS011;38955;48.916;2.336;2023-04-24T06:28:19;12.82;;;4.55;;
53072;SDS011;38955;48.916;2.336;2023-04-24T06:30:22;12.55;;;4.28;;
53072;SDS011;38955;48.916;2.336;2023-04-24T06:32:24;12.20;;;4.32;;
53072;SDS011;38955;48.916;2.336;2023-04-24T06:34:28;12.80;;;3.58;;
53072;SDS011;38955;48.916;2.336;2023-04-24T06:36:32;13.18;;;5.55;;
53072;SDS011;38955;48.916;2.336;2023-04-24T06:38:35;12.10;;;4.00;;
53072;SDS011;38955;48.916;2.336;2023-04-24T06:40:37;13.63;;;4.82;;
53072;SDS011;38955;48.916;2.336;2023-04-24T06:42:40;13.45;;;4.32;;
53072;SDS011;38955;48.916;2.336;2023-04-24T06:44:43;15.73;;;4.90;;
53072;SDS011;38955;48.916;2.336;2023-04-24T06:46:46;9.75;;;4.47;;
53072;SDS011;38955;48.916;2.336;2023-04-24T06:48:48;9.02;;;4.70;;
53072;SDS011;38955;48.916;2.336;2023-04-24T06:50:52;12.00;;;4.43;;
53072;SDS011;38955;48.916;2.336;2023-04-24T06:52:54;10.23;;;4.60;;
53072;SDS011;38955;48.916;2.336;2023-04-24T06:54:59;12.68;;;4.15;;
53072;SDS011;38955;48.916;2.336;2023-04-24T06:57:01;14.38;;;4.68;;
53072;SDS011;38955;48.916;2.336;2023-04-24T06:59:04;12.88;;;4.55;;
53072;SDS011;38955;48.916;2.336;2023-04-24T07:01:06;11.98;;;4.93;;
53072;SDS011;38955;48.916;2.336;2023-04-24T07:03:08;9.38;;;4.30;;
53072;SDS011;38955;48.916;2.336;2023-04-24T07:05:11;14.27;;;4.80;;
53072;SDS011;38955;48.916;2.336;2023-04-24T07:07:15;11.52;;;4.53;;
53072;SDS011;38955;48.916;2.336;2023-04-24T07:09:17;11.35;;;5.10;;
53072;SDS011;38955;48.916;2.336;2023-04-24T07:11:20;13.70;;;5.82;;
53072;SDS011;38955;48.916;2.336;2023-04-24T07:13:23;13.13;;;5.80;;
53072;SDS011;38955;48.916;2.336;2023-04-24T07:15:26;10.73;;;5.07;;
53072;SDS011;38955;48.916;2.336;2023-04-24T07:17:28;11.65;;;5.30;;
53072;SDS011;38955;48.916;2.336;2023-04-24T07:19:30;11.57;;;5.97;;
53072;SDS011;38955;48.916;2.336;2023-04-24T07:21:32;14.55;;;6.03;;
53072;SDS011;38955;48.916;2.336;2023-04-24T07:23:35;11.40;;;5.60;;
53072;SDS011;38955;48.916;2.336;2023-04-24T07:25:37;10.85;;;5.38;;
53072;SDS011;38955;48.916;2.336;2023-04-24T07:27:40;14.30;;;6.07;;
53072;SDS011;38955;48.916;2.336;2023-04-24T07:29:42;10.15;;;5.03;;
53072;SDS011;38955;48.916;2.336;2023-04-24T07:31:45;11.50;;;5.68;;
53072;SDS011;38955;48.916;2.336;2023-04-24T07:33:47;12.13;;;6.13;;
53072;SDS011;38955;48.916;2.336;2023-04-24T07:35:49;13.73;;;6.32;;
53072;SDS011;38955;48.916;2.336;2023-04-24T07:37:52;12.68;;;6.18;;
53072;SDS011;38955;48.916;2.336;2023-04-24T07:39:56;12.15;;;5.97;;
53072;SDS011;38955;48.916;2.336;2023-04-24T07:41:58;12.82;;;6.00;;
53072;SDS011;38955;48.916;2.336;2023-04-24T07:44:00;11.02;;;6.05;;
53072;SDS011;38955;48.916;2.336;2023-04-24T07:46:02;14.50;;;6.53;;
53072;SDS011;38955;48.916;2.336;2023-04-24T07:48:07;9.57;;;6.43;;
53072;SDS011;38955;48.916;2.336;2023-04-24T07:50:10;13.65;;;5.53;;
53072;SDS011;38955;48.916;2.336;2023-04-24T07:52:14;12.23;;;6.28;;
53072;SDS011;38955;48.916;2.336;2023-04-24T07:54:16;17.88;;;6.93;;
53072;SDS011;38955;48.916;2.336;2023-04-24T07:56:20;15.98;;;6.22;;
53072;SDS011;38955;48.916;2.336;2023-04-24T07:58:22;16.52;;;6.00;;
53072;SDS011;38955;48.916;2.336;2023-04-24T08:00:24;11.63;;;5.65;;
53072;SDS011;38955;48.916;2.336;2023-04-24T08:02:26;13.30;;;6.50;;
53072;SDS011;38955;48.916;2.336;2023-04-24T08:04:29;13.63;;;5.90;;
53072;SDS011;38955;48.916;2.336;2023-04-24T08:06:31;13.95;;;6.50;;
53072;SDS011;38955;48.916;2.336;2023-04-24T08:08:33;11.95;;;7.25;;
53072;SDS011;38955;48.916;2.336;2023-04-24T08:10:35;18.58;;;7.10;;
53072;SDS011;38955;48.916;2.336;2023-04-24T08:12:39;11.10;;;7.53;;
53072;SDS011;38955;48.916;2.336;2023-04-24T08:14:41;12.18;;;7.55;;
53072;SDS011;38955;48.916;2.336;2023-04-24T08:16:44;10.75;;;7.07;;
53072;SDS011;38955;48.916;2.336;2023-04-24T08:18:46;13.82;;;6.70;;
53072;SDS011;38955;48.916;2.336;2023-04-24T08:20:48;12.68;;;7.45;;
53072;SDS011;38955;48.916;2.336;2023-04-24T08:22:50;16.58;;;8.13;;
53072;SDS011;38955;48.916;2.336;2023-04-24T08:24:52;14.35;;;7.18;;
53072;SDS011;38955;48.916;2.336;2023-04-24T08:26:54;10.40;;;6.80;;
53072;SDS011;38955;48.916;2.336;2023-04-24T08:29:00;16.15;;;6.95;;
53072;SDS011;38955;48.916;2.336;2023-04-24T08:31:03;14.98;;;6.75;;
53072;SDS011;38955;48.916;2.336;2023-04-24T08:33:08;13.35;;;7.35;;
53072;SDS011;38955;48.916;2.336;2023-04-24T08:35:10;11.23;;;6.82;;
53072;SDS011;38955;48.916;2.336;2023-04-24T08:37:13;9.80;;;6.35;;
53072;SDS011;38955;48.916;2.336;2023-04-24T08:39:15;16.63;;;8.18;;
53072;SDS011;38955;48.916;2.336;2023-04-24T08:41:18;12.63;;;7.20;;
53072;SDS011;38955;48.916;2.336;2023-04-24T08:43:21;11.15;;;6.43;;
53072;SDS011;38955;48.916;2.336;2023-04-24T08:45:25;19.08;;;6.55;;
53072;SDS011;38955;48.916;2.336;2023-04-24T08:47:27;10.35;;;6.18;;
53072;SDS011;38955;48.916;2.336;2023-04-24T08:49:31;12.75;;;6.50;;
53072;SDS011;38955;48.916;2.336;2023-04-24T08:51:34;14.32;;;7.38;;
53072;SDS011;38955;48.916;2.336;2023-04-24T08:55:41;10.27;;;6.20;;
53072;SDS011;38955;48.916;2.336;2023-04-24T08:57:50;16.17;;;7.18;;
53072;SDS011;38955;48.916;2.336;2023-04-24T08:59:53;13.32;;;8.23;;
53072;SDS011;38955;48.916;2.336;2023-04-24T09:01:59;13.50;;;7.45;;
53072;SDS011;38955;48.916;2.336;2023-04-24T09:04:02;11.60;;;6.00;;
53072;SDS011;38955;48.916;2.336;2023-04-24T09:06:06;13.95;;;7.80;;
53072;SDS011;38955;48.916;2.336;2023-04-24T09:10:15;12.40;;;7.38;;
53072;SDS011;38955;48.916;2.336;2023-04-24T09:12:17;17.63;;;8.52;;
53072;SDS011;38955;48.916;2.336;2023-04-24T09:14:19;13.98;;;5.13;;
53072;SDS011;38955;48.916;2.336;2023-04-24T09:16:22;11.85;;;6.07;;
53072;SDS011;38955;48.916;2.336;2023-04-24T09:18:27;11.95;;;6.40;;
53072;SDS011;38955;48.916;2.336;2023-04-24T09:20:29;9.77;;;5.93;;
53072;SDS011;38955;48.916;2.336;2023-04-24T09:22:32;10.30;;;5.28;;
53072;SDS011;38955;48.916;2.336;2023-04-24T09:24:34;8.30;;;5.53;;
53072;SDS011;38955;48.916;2.336;2023-04-24T09:26:39;9.95;;;5.70;;
53072;SDS011;38955;48.916;2.336;2023-04-24T09:28:41;9.43;;;5.50;;
53072;SDS011;38955;48.916;2.336;2023-04-24T09:30:43;8.52;;;5.15;;
53072;SDS011;38955;48.916;2.336;2023-04-24T09:32:45;8.07;;;5.00;;
53072;SDS011;38955;48.916;2.336;2023-04-24T09:34:49;8.50;;;5.55;;
53072;SDS011;38955;48.916;2.336;2023-04-24T09:37:06;11.57;;;7.20;;
53072;SDS011;38955;48.916;2.336;2023-04-24T09:39:08;14.27;;;7.20;;
53072;SDS011;38955;48.916;2.336;2023-04-24T09:41:13;9.83;;;6.73;;
53072;SDS011;38955;48.916;2.336;2023-04-24T09:43:15;12.68;;;7.32;;
53072;SDS011;38955;48.916;2.336;2023-04-24T09:45:18;14.15;;;7.38;;
53072;SDS011;38955;48.916;2.336;2023-04-24T09:47:20;12.55;;;7.25;;
53072;SDS011;38955;48.916;2.336;2023-04-24T09:49:23;10.48;;;7.78;;
53072;SDS011;38955;48.916;2.336;2023-04-24T09:51:36;12.52;;;7.05;;
53072;SDS011;38955;48.916;2.336;2023-04-24T09:53:39;11.38;;;6.53;;
53072;SDS011;38955;48.916;2.336;2023-04-24T09:55:42;11.80;;;7.05;;
53072;SDS011;38955;48.916;2.336;2023-04-24T09:57:49;10.68;;;7.28;;
53072;SDS011;38955;48.916;2.336;2023-04-24T09:59:52;15.57;;;7.32;;
53072;SDS011;38955;48.916;2.336;2023-04-24T10:01:54;13.43;;;7.43;;
53072;SDS011;38955;48.916;2.336;2023-04-24T10:03:58;15.32;;;7.22;;
53072;SDS011;38955;48.916;2.336;2023-04-24T10:06:00;12.23;;;7.45;;
53072;SDS011;38955;48.916;2.336;2023-04-24T10:08:05;11.75;;;6.95;;
53072;SDS011;38955;48.916;2.336;2023-04-24T10:10:08;10.50;;;7.55;;
53072;SDS011;38955;48.916;2.336;2023-04-24T10:12:10;12.20;;;6.70;;
53072;SDS011;38955;48.916;2.336;2023-04-24T10:14:14;12.32;;;7.15;;
53072;SDS011;38955;48.916;2.336;2023-04-24T10:16:17;14.45;;;6.70;;
53072;SDS011;38955;48.916;2.336;2023-04-24T10:18:21;11.65;;;7.05;;
53072;SDS011;38955;48.916;2.336;2023-04-24T10:20:25;9.82;;;6.25;;
53072;SDS011;38955;48.916;2.336;2023-04-24T10:22:28;13.02;;;7.22;;
53072;SDS011;38955;48.916;2.336;2023-04-24T10:24:33;9.38;;;6.25;;
53072;SDS011;38955;48.916;2.336;2023-04-24T10:26:37;8.65;;;5.53;;
53072;SDS011;38955;48.916;2.336;2023-04-24T10:28:41;13.10;;;7.45;;
53072;SDS011;38955;48.916;2.336;2023-04-24T10:30:46;10.88;;;7.20;;
53072;SDS011;38955;48.916;2.336;2023-04-24T10:32:49;8.30;;;6.05;;
53072;SDS011;38955;48.916;2.336;2023-04-24T10:34:51;9.57;;;6.45;;
53072;SDS011;38955;48.916;2.336;2023-04-24T10:36:55;9.38;;;6.70;;
53072;SDS011;38955;48.916;2.336;2023-04-24T10:39:00;9.75;;;6.75;;
53072;SDS011;38955;48.916;2.336;2023-04-24T10:41:08;9.30;;;5.80;;
53072;SDS011;38955;48.916;2.336;2023-04-24T10:43:16;12.68;;;7.53;;
53072;SDS011;38955;48.916;2.336;2023-04-24T10:45:20;9.70;;;6.72;;
53072;SDS011;38955;48.916;2.336;2023-04-24T10:47:23;9.35;;;6.28;;
53072;SDS011;38955;48.916;2.336;2023-04-24T10:49:29;10.13;;;5.63;;
53072;SDS011;38955;48.916;2.336;2023-04-24T10:51:45;10.73;;;6.57;;
53072;SDS011;38955;48.916;2.336;2023-04-24T10:53:49;10.80;;;6.00;;
53072;SDS011;38955;48.916;2.336;2023-04-24T10:55:56;11.07;;;6.03;;
53072;SDS011;38955;48.916;2.336;2023-04-24T10:58:02;13.88;;;6.15;;
53072;SDS011;38955;48.916;2.336;2023-04-24T11:00:14;11.05;;;6.10;;
53072;SDS011;38955;48.916;2.336;2023-04-24T11:02:20;12.40;;;5.60;;
53072;SDS011;38955;48.916;2.336;2023-04-24T11:04:38;10.00;;;5.53;;
53072;SDS011;38955;48.916;2.336;2023-04-24T11:06:40;9.93;;;4.93;;
53072;SDS011;38955;48.916;2.336;2023-04-24T11:08:45;11.13;;;5.37;;
53072;SDS011;38955;48.916;2.336;2023-04-24T11:10:50;7.85;;;4.85;;
53072;SDS011;38955;48.916;2.336;2023-04-24T11:12:58;8.90;;;4.63;;
53072;SDS011;38955;48.916;2.336;2023-04-24T11:15:01;9.18;;;5.18;;
53072;SDS011;38955;48.916;2.336;2023-04-24T11:17:04;7.18;;;5.00;;
53072;SDS011;38955;48.916;2.336;2023-04-24T11:19:07;10.27;;;5.57;;
53072;SDS011;38955;48.916;2.336;2023-04-24T11:21:11;10.10;;;5.00;;
53072;SDS011;38955;48.916;2.336;2023-04-24T11:23:14;8.73;;;5.53;;
53072;SDS011;38955;48.916;2.336;2023-04-24T11:25:16;10.07;;;5.43;;
53072;SDS011;38955;48.916;2.336;2023-04-24T11:27:18;9.75;;;5.20;;
53072;SDS011;38955;48.916;2.336;2023-04-24T11:29:22;9.43;;;5.53;;
53072;SDS011;38955;48.916;2.336;2023-04-24T11:31:44;6.28;;;5.18;;
53072;SDS011;38955;48.916;2.336;2023-04-24T11:33:51;9.38;;;5.40;;
53072;SDS011;38955;48.916;2.336;2023-04-24T11:35:54;9.82;;;4.97;;
53072;SDS011;38955;48.916;2.336;2023-04-24T11:37:56;8.15;;;5.00;;
53072;SDS011;38955;48.916;2.336;2023-04-24T11:40:03;7.68;;;5.78;;
53072;SDS011;38955;48.916;2.336;2023-04-24T11:42:06;10.73;;;6.05;;
53072;SDS011;38955;48.916;2.336;2023-04-24T11:44:09;11.40;;;5.25;;
53072;SDS011;38955;48.916;2.336;2023-04-24T11:46:16;9.35;;;5.32;;
53072;SDS011;38955;48.916;2.336;2023-04-24T11:48:20;10.07;;;5.35;;
53072;SDS011;38955;48.916;2.336;2023-04-24T11:50:24;8.25;;;4.95;;
53072;SDS011;38955;48.916;2.336;2023-04-24T11:52:29;8.95;;;5.03;;
53072;SDS011;38955;48.916;2.336;2023-04-24T11:54:33;7.93;;;4.80;;
53072;SDS011;38955;48.916;2.336;2023-04-24T11:56:35;7.05;;;4.05;;
53072;SDS011;38955;48.916;2.336;2023-04-24T11:58:37;5.32;;;4.00;;
53072;SDS011;38955;48.916;2.336;2023-04-24T12:00:40;6.53;;;4.32;;
53072;SDS011;38955;48.916;2.336;2023-04-24T12:02:42;8.55;;;3.90;;
53072;SDS011;38955;48.916;2.336;2023-04-24T12:04:46;6.30;;;4.05;;
53072;SDS011;38955;48.916;2.336;2023-04-24T12:07:01;10.50;;;4.10;;
53072;SDS011;38955;48.916;2.336;2023-04-24T12:09:03;6.22;;;3.42;;
53072;SDS011;38955;48.916;2.336;2023-04-24T12:11:18;4.97;;;3.63;;
53072;SDS011;38955;48.916;2.336;2023-04-24T12:13:20;6.00;;;3.28;;
53072;SDS011;38955;48.916;2.336;2023-04-24T12:15:23;6.05;;;3.83;;
53072;SDS011;38955;48.916;2.336;2023-04-24T12:17:26;4.00;;;2.78;;
53072;SDS011;38955;48.916;2.336;2023-04-24T12:19:30;10.10;;;4.00;;
53072;SDS011;38955;48.916;2.336;2023-04-24T12:21:34;8.00;;;3.58;;
53072;SDS011;38955;48.916;2.336;2023-04-24T12:23:37;4.90;;;2.40;;
53072;SDS011;38955;48.916;2.336;2023-04-24T12:25:39;4.75;;;2.70;;